sensor_id;sensor_type;location;lat;lon;timestamp;P1;durP1;ratioP1;P2;durP2;ratioP2
37895;SDS011;23733;53.254;10.430;2022-07-09T00:01:15;11.57;;;3.37;;
37895;SDS011;23733;53.254;10.430;2022-07-09T00:03:41;6.93;;;2.90;;
37895;SDS011;23733;53.254;10.430;2022-07-09T00:06:07;8.47;;;3.10;;
37895;SDS011;23733;53.254;10.430;2022-07-09T00:08:33;10.43;;;3.70;;
37895;SDS011;23733;53.254;10.430;2022-07-09T00:10:59;9.83;;;3.20;;
37895;SDS011;23733;53.254;10.430;2022-07-09T00:13:25;7.83;;;2.83;;
37895;SDS011;23733;53.254;10.430;2022-07-09T00:15:51;12.37;;;3.50;;
37895;SDS011;23733;53.254;10.430;2022-07-09T00:18:18;11.73;;;3.40;;
37895;SDS011;23733;53.254;10.430;2022-07-09T00:20:44;8.70;;;2.87;;
37895;SDS011;23733;53.254;10.430;2022-07-09T00:23:10;5.23;;;2.40;;
37895;SDS011;23733;53.254;10.430;2022-07-09T00:25:36;8.23;;;2.90;;
37895;SDS011;23733;53.254;10.430;2022-07-09T00:28:02;9.63;;;2.97;;
37895;SDS011;23733;53.254;10.430;2022-07-09T00:30:28;13.80;;;3.27;;
37895;SDS011;23733;53.254;10.430;2022-07-09T00:32:54;9.33;;;3.00;;
37895;SDS011;23733;53.254;10.430;2022-07-09T00:35:20;11.17;;;3.03;;
37895;SDS011;23733;53.254;10.430;2022-07-09T00:37:46;10.63;;;3.53;;
37895;SDS011;23733;53.254;10.430;2022-07-09T00:40:12;10.37;;;3.20;;
37895;SDS011;23733;53.254;10.430;2022-07-09T00:42:38;9.67;;;2.63;;
37895;SDS011;23733;53.254;10.430;2022-07-09T00:45:04;11.87;;;3.00;;
37895;SDS011;23733;53.254;10.430;2022-07-09T00:47:31;7.07;;;2.80;;
37895;SDS011;23733;53.254;10.430;2022-07-09T00:49:57;10.20;;;3.13;;
37895;SDS011;23733;53.254;10.430;2022-07-09T00:52:23;8.13;;;2.90;;
37895;SDS011;23733;53.254;10.430;2022-07-09T00:54:49;12.40;;;3.43;;
37895;SDS011;23733;53.254;10.430;2022-07-09T00:57:16;10.00;;;3.10;;
37895;SDS011;23733;53.254;10.430;2022-07-09T00:59:44;9.23;;;3.40;;
37895;SDS011;23733;53.254;10.430;2022-07-09T01:02:11;9.97;;;3.50;;
37895;SDS011;23733;53.254;10.430;2022-07-09T01:04:37;11.07;;;3.23;;
37895;SDS011;23733;53.254;10.430;2022-07-09T01:07:05;13.63;;;3.57;;
37895;SDS011;23733;53.254;10.430;2022-07-09T01:09:31;10.53;;;3.37;;
37895;SDS011;23733;53.254;10.430;2022-07-09T01:11:57;12.83;;;3.17;;
37895;SDS011;23733;53.254;10.430;2022-07-09T01:14:23;9.90;;;3.17;;
37895;SDS011;23733;53.254;10.430;2022-07-09T01:16:57;9.83;;;3.07;;
37895;SDS011;23733;53.254;10.430;2022-07-09T01:19:30;8.00;;;3.03;;
37895;SDS011;23733;53.254;10.430;2022-07-09T01:21:57;9.63;;;3.30;;
37895;SDS011;23733;53.254;10.430;2022-07-09T01:24:23;8.47;;;3.17;;
37895;SDS011;23733;53.254;10.430;2022-07-09T01:26:50;11.10;;;3.47;;
37895;SDS011;23733;53.254;10.430;2022-07-09T01:29:17;15.20;;;4.60;;
37895;SDS011;23733;53.254;10.430;2022-07-09T01:31:43;9.30;;;3.27;;
37895;SDS011;23733;53.254;10.430;2022-07-09T01:34:09;15.40;;;4.00;;
37895;SDS011;23733;53.254;10.430;2022-07-09T01:36:35;9.90;;;3.20;;
37895;SDS011;23733;53.254;10.430;2022-07-09T01:39:02;9.27;;;3.60;;
37895;SDS011;23733;53.254;10.430;2022-07-09T01:41:28;8.47;;;3.37;;
37895;SDS011;23733;53.254;10.430;2022-07-09T01:43:56;12.90;;;3.57;;
37895;SDS011;23733;53.254;10.430;2022-07-09T01:46:22;8.13;;;2.90;;
37895;SDS011;23733;53.254;10.430;2022-07-09T01:48:48;10.20;;;2.90;;
37895;SDS011;23733;53.254;10.430;2022-07-09T01:51:14;14.93;;;4.17;;
37895;SDS011;23733;53.254;10.430;2022-07-09T01:53:40;14.27;;;3.30;;
37895;SDS011;23733;53.254;10.430;2022-07-09T01:56:07;9.73;;;2.77;;
37895;SDS011;23733;53.254;10.430;2022-07-09T01:58:35;10.00;;;3.50;;
37895;SDS011;23733;53.254;10.430;2022-07-09T02:01:02;9.00;;;3.17;;
37895;SDS011;23733;53.254;10.430;2022-07-09T02:03:29;11.23;;;3.30;;
37895;SDS011;23733;53.254;10.430;2022-07-09T02:05:55;10.83;;;3.20;;
37895;SDS011;23733;53.254;10.430;2022-07-09T02:08:22;9.63;;;3.10;;
37895;SDS011;23733;53.254;10.430;2022-07-09T02:10:49;12.60;;;3.63;;
37895;SDS011;23733;53.254;10.430;2022-07-09T02:13:15;12.60;;;3.67;;
37895;SDS011;23733;53.254;10.430;2022-07-09T02:15:42;10.47;;;3.30;;
37895;SDS011;23733;53.254;10.430;2022-07-09T02:18:09;7.77;;;2.97;;
37895;SDS011;23733;53.254;10.430;2022-07-09T02:20:35;12.80;;;3.83;;
37895;SDS011;23733;53.254;10.430;2022-07-09T02:23:01;11.33;;;3.20;;
37895;SDS011;23733;53.254;10.430;2022-07-09T02:25:27;9.77;;;3.10;;
37895;SDS011;23733;53.254;10.430;2022-07-09T02:27:53;9.60;;;3.37;;
37895;SDS011;23733;53.254;10.430;2022-07-09T02:30:19;12.03;;;4.00;;
37895;SDS011;23733;53.254;10.430;2022-07-09T02:32:45;14.50;;;3.37;;
37895;SDS011;23733;53.254;10.430;2022-07-09T02:35:11;11.23;;;3.80;;
37895;SDS011;23733;53.254;10.430;2022-07-09T02:37:37;13.37;;;3.93;;
37895;SDS011;23733;53.254;10.430;2022-07-09T02:40:04;11.83;;;3.40;;
37895;SDS011;23733;53.254;10.430;2022-07-09T02:42:31;11.03;;;4.10;;
37895;SDS011;23733;53.254;10.430;2022-07-09T02:44:57;11.23;;;3.40;;
37895;SDS011;23733;53.254;10.430;2022-07-09T02:47:22;10.53;;;3.10;;
37895;SDS011;23733;53.254;10.430;2022-07-09T02:49:48;8.73;;;2.90;;
37895;SDS011;23733;53.254;10.430;2022-07-09T02:52:14;12.27;;;3.40;;
37895;SDS011;23733;53.254;10.430;2022-07-09T02:54:41;10.77;;;3.60;;
37895;SDS011;23733;53.254;10.430;2022-07-09T02:57:07;10.23;;;3.20;;
37895;SDS011;23733;53.254;10.430;2022-07-09T02:59:33;10.37;;;3.73;;
37895;SDS011;23733;53.254;10.430;2022-07-09T03:02:00;12.20;;;3.40;;
37895;SDS011;23733;53.254;10.430;2022-07-09T03:04:26;10.67;;;3.10;;
37895;SDS011;23733;53.254;10.430;2022-07-09T03:06:52;7.43;;;3.30;;
37895;SDS011;23733;53.254;10.430;2022-07-09T03:09:18;9.27;;;3.70;;
37895;SDS011;23733;53.254;10.430;2022-07-09T03:11:44;10.00;;;3.20;;
37895;SDS011;23733;53.254;10.430;2022-07-09T03:14:10;10.17;;;3.63;;
37895;SDS011;23733;53.254;10.430;2022-07-09T03:16:36;9.33;;;3.10;;
37895;SDS011;23733;53.254;10.430;2022-07-09T03:19:02;13.57;;;3.50;;
37895;SDS011;23733;53.254;10.430;2022-07-09T03:21:28;10.13;;;3.13;;
37895;SDS011;23733;53.254;10.430;2022-07-09T03:23:54;8.57;;;3.33;;
37895;SDS011;23733;53.254;10.430;2022-07-09T03:26:20;10.50;;;3.30;;
37895;SDS011;23733;53.254;10.430;2022-07-09T03:28:46;12.20;;;3.57;;
37895;SDS011;23733;53.254;10.430;2022-07-09T03:31:12;7.03;;;2.60;;
37895;SDS011;23733;53.254;10.430;2022-07-09T03:33:38;9.37;;;2.97;;
37895;SDS011;23733;53.254;10.430;2022-07-09T03:36:04;10.23;;;3.50;;
37895;SDS011;23733;53.254;10.430;2022-07-09T03:38:31;11.30;;;3.17;;
37895;SDS011;23733;53.254;10.430;2022-07-09T03:40:57;9.73;;;3.03;;
37895;SDS011;23733;53.254;10.430;2022-07-09T03:43:23;10.63;;;3.60;;
37895;SDS011;23733;53.254;10.430;2022-07-09T03:45:49;9.93;;;3.50;;
37895;SDS011;23733;53.254;10.430;2022-07-09T03:48:15;10.00;;;3.23;;
37895;SDS011;23733;53.254;10.430;2022-07-09T03:50:41;10.33;;;3.47;;
37895;SDS011;23733;53.254;10.430;2022-07-09T03:53:07;11.80;;;3.50;;
37895;SDS011;23733;53.254;10.430;2022-07-09T03:55:33;8.27;;;3.50;;
37895;SDS011;23733;53.254;10.430;2022-07-09T03:57:59;12.13;;;3.67;;
37895;SDS011;23733;53.254;10.430;2022-07-09T04:00:25;9.20;;;3.20;;
37895;SDS011;23733;53.254;10.430;2022-07-09T04:02:53;11.47;;;3.73;;
37895;SDS011;23733;53.254;10.430;2022-07-09T04:05:20;6.57;;;2.80;;
37895;SDS011;23733;53.254;10.430;2022-07-09T04:07:46;13.30;;;3.50;;
37895;SDS011;23733;53.254;10.430;2022-07-09T04:10:12;11.77;;;3.50;;
37895;SDS011;23733;53.254;10.430;2022-07-09T04:12:38;10.73;;;2.67;;
37895;SDS011;23733;53.254;10.430;2022-07-09T04:15:04;10.37;;;3.70;;
37895;SDS011;23733;53.254;10.430;2022-07-09T04:17:30;11.43;;;3.50;;
37895;SDS011;23733;53.254;10.430;2022-07-09T04:19:56;12.67;;;3.47;;
37895;SDS011;23733;53.254;10.430;2022-07-09T04:22:22;13.37;;;3.33;;
37895;SDS011;23733;53.254;10.430;2022-07-09T04:24:49;8.63;;;2.97;;
37895;SDS011;23733;53.254;10.430;2022-07-09T04:27:15;12.20;;;3.37;;
37895;SDS011;23733;53.254;10.430;2022-07-09T04:29:41;13.63;;;3.00;;
37895;SDS011;23733;53.254;10.430;2022-07-09T04:32:07;8.37;;;2.93;;
37895;SDS011;23733;53.254;10.430;2022-07-09T04:34:33;6.37;;;2.87;;
37895;SDS011;23733;53.254;10.430;2022-07-09T04:36:59;9.80;;;3.10;;
37895;SDS011;23733;53.254;10.430;2022-07-09T04:39:25;9.03;;;2.87;;
37895;SDS011;23733;53.254;10.430;2022-07-09T04:41:52;8.37;;;2.93;;
37895;SDS011;23733;53.254;10.430;2022-07-09T04:44:18;9.00;;;3.10;;
37895;SDS011;23733;53.254;10.430;2022-07-09T04:46:44;8.83;;;3.00;;
37895;SDS011;23733;53.254;10.430;2022-07-09T04:49:10;6.47;;;3.23;;
37895;SDS011;23733;53.254;10.430;2022-07-09T04:51:36;8.07;;;3.00;;
37895;SDS011;23733;53.254;10.430;2022-07-09T04:54:02;7.07;;;2.90;;
37895;SDS011;23733;53.254;10.430;2022-07-09T04:56:28;5.20;;;2.50;;
37895;SDS011;23733;53.254;10.430;2022-07-09T04:58:55;10.13;;;3.43;;
37895;SDS011;23733;53.254;10.430;2022-07-09T05:01:22;5.97;;;2.67;;
37895;SDS011;23733;53.254;10.430;2022-07-09T05:03:48;8.33;;;2.60;;
37895;SDS011;23733;53.254;10.430;2022-07-09T05:06:15;6.57;;;2.70;;
37895;SDS011;23733;53.254;10.430;2022-07-09T05:08:42;9.20;;;2.60;;
37895;SDS011;23733;53.254;10.430;2022-07-09T05:11:09;7.57;;;2.60;;
37895;SDS011;23733;53.254;10.430;2022-07-09T05:13:38;11.77;;;6.60;;
37895;SDS011;23733;53.254;10.430;2022-07-09T05:16:06;6.73;;;2.80;;
37895;SDS011;23733;53.254;10.430;2022-07-09T05:18:32;8.50;;;2.87;;
37895;SDS011;23733;53.254;10.430;2022-07-09T05:20:58;9.50;;;3.10;;
37895;SDS011;23733;53.254;10.430;2022-07-09T05:23:24;12.50;;;2.90;;
37895;SDS011;23733;53.254;10.430;2022-07-09T05:25:50;6.70;;;3.03;;
37895;SDS011;23733;53.254;10.430;2022-07-09T05:28:17;9.17;;;2.60;;
37895;SDS011;23733;53.254;10.430;2022-07-09T05:30:43;9.77;;;3.43;;
37895;SDS011;23733;53.254;10.430;2022-07-09T05:33:09;6.40;;;2.40;;
37895;SDS011;23733;53.254;10.430;2022-07-09T05:35:35;8.63;;;2.80;;
37895;SDS011;23733;53.254;10.430;2022-07-09T05:38:02;7.13;;;2.93;;
37895;SDS011;23733;53.254;10.430;2022-07-09T05:40:28;4.93;;;2.70;;
37895;SDS011;23733;53.254;10.430;2022-07-09T05:42:54;9.27;;;2.50;;
37895;SDS011;23733;53.254;10.430;2022-07-09T05:45:20;6.67;;;2.67;;
37895;SDS011;23733;53.254;10.430;2022-07-09T05:47:46;6.90;;;2.70;;
37895;SDS011;23733;53.254;10.430;2022-07-09T05:50:12;4.40;;;2.30;;
37895;SDS011;23733;53.254;10.430;2022-07-09T05:52:38;6.70;;;2.60;;
37895;SDS011;23733;53.254;10.430;2022-07-09T05:55:04;9.30;;;2.70;;
37895;SDS011;23733;53.254;10.430;2022-07-09T05:57:30;6.83;;;2.53;;
37895;SDS011;23733;53.254;10.430;2022-07-09T05:59:57;8.37;;;2.40;;
37895;SDS011;23733;53.254;10.430;2022-07-09T06:02:23;8.33;;;2.43;;
37895;SDS011;23733;53.254;10.430;2022-07-09T06:04:49;7.43;;;2.70;;
37895;SDS011;23733;53.254;10.430;2022-07-09T06:07:15;9.67;;;2.67;;
37895;SDS011;23733;53.254;10.430;2022-07-09T06:09:41;6.60;;;2.37;;
37895;SDS011;23733;53.254;10.430;2022-07-09T06:12:07;5.40;;;2.40;;
37895;SDS011;23733;53.254;10.430;2022-07-09T06:14:34;5.20;;;2.43;;
37895;SDS011;23733;53.254;10.430;2022-07-09T06:17:00;6.97;;;2.60;;
37895;SDS011;23733;53.254;10.430;2022-07-09T06:19:35;5.00;;;2.17;;
37895;SDS011;23733;53.254;10.430;2022-07-09T06:22:02;12.17;;;2.57;;
37895;SDS011;23733;53.254;10.430;2022-07-09T06:24:28;6.33;;;2.30;;
37895;SDS011;23733;53.254;10.430;2022-07-09T06:26:55;7.10;;;2.00;;
37895;SDS011;23733;53.254;10.430;2022-07-09T06:29:22;5.57;;;2.33;;
37895;SDS011;23733;53.254;10.430;2022-07-09T06:31:48;6.37;;;2.23;;
37895;SDS011;23733;53.254;10.430;2022-07-09T06:34:14;8.13;;;2.37;;
37895;SDS011;23733;53.254;10.430;2022-07-09T06:36:40;4.50;;;1.90;;
37895;SDS011;23733;53.254;10.430;2022-07-09T06:39:10;6.93;;;2.20;;
37895;SDS011;23733;53.254;10.430;2022-07-09T06:42:02;4.97;;;2.50;;
37895;SDS011;23733;53.254;10.430;2022-07-09T06:44:32;6.77;;;2.40;;
37895;SDS011;23733;53.254;10.430;2022-07-09T06:46:59;7.20;;;1.87;;
37895;SDS011;23733;53.254;10.430;2022-07-09T06:49:25;8.73;;;2.40;;
37895;SDS011;23733;53.254;10.430;2022-07-09T06:51:51;7.93;;;2.40;;
37895;SDS011;23733;53.254;10.430;2022-07-09T06:54:17;4.27;;;2.43;;
37895;SDS011;23733;53.254;10.430;2022-07-09T06:56:43;4.47;;;2.20;;
37895;SDS011;23733;53.254;10.430;2022-07-09T06:59:09;5.07;;;2.30;;
37895;SDS011;23733;53.254;10.430;2022-07-09T07:01:35;6.50;;;2.53;;
37895;SDS011;23733;53.254;10.430;2022-07-09T07:04:01;5.57;;;2.47;;
37895;SDS011;23733;53.254;10.430;2022-07-09T07:06:27;3.03;;;2.13;;
37895;SDS011;23733;53.254;10.430;2022-07-09T07:08:53;7.47;;;2.80;;
37895;SDS011;23733;53.254;10.430;2022-07-09T07:11:19;3.87;;;2.50;;
37895;SDS011;23733;53.254;10.430;2022-07-09T07:13:45;5.07;;;2.77;;
37895;SDS011;23733;53.254;10.430;2022-07-09T07:16:11;5.70;;;2.87;;
37895;SDS011;23733;53.254;10.430;2022-07-09T07:18:37;5.97;;;3.00;;
37895;SDS011;23733;53.254;10.430;2022-07-09T07:21:03;4.53;;;2.90;;
37895;SDS011;23733;53.254;10.430;2022-07-09T07:23:29;4.37;;;3.03;;
37895;SDS011;23733;53.254;10.430;2022-07-09T07:25:59;5.53;;;3.20;;
37895;SDS011;23733;53.254;10.430;2022-07-09T07:28:25;8.67;;;2.90;;
37895;SDS011;23733;53.254;10.430;2022-07-09T07:30:52;7.87;;;3.40;;
37895;SDS011;23733;53.254;10.430;2022-07-09T07:33:18;4.40;;;2.77;;
37895;SDS011;23733;53.254;10.430;2022-07-09T07:35:46;5.33;;;2.80;;
37895;SDS011;23733;53.254;10.430;2022-07-09T07:38:13;6.60;;;2.67;;
37895;SDS011;23733;53.254;10.430;2022-07-09T07:40:39;4.93;;;2.97;;
37895;SDS011;23733;53.254;10.430;2022-07-09T07:43:05;8.17;;;3.03;;
37895;SDS011;23733;53.254;10.430;2022-07-09T07:45:31;6.47;;;3.43;;
37895;SDS011;23733;53.254;10.430;2022-07-09T07:47:57;6.53;;;3.00;;
37895;SDS011;23733;53.254;10.430;2022-07-09T07:50:23;3.90;;;2.53;;
37895;SDS011;23733;53.254;10.430;2022-07-09T07:52:49;5.17;;;2.50;;
37895;SDS011;23733;53.254;10.430;2022-07-09T07:55:16;5.23;;;2.50;;
37895;SDS011;23733;53.254;10.430;2022-07-09T07:57:42;4.60;;;3.10;;
37895;SDS011;23733;53.254;10.430;2022-07-09T08:00:08;4.63;;;2.60;;
37895;SDS011;23733;53.254;10.430;2022-07-09T08:02:34;4.87;;;2.70;;
37895;SDS011;23733;53.254;10.430;2022-07-09T08:05:00;5.33;;;2.67;;
37895;SDS011;23733;53.254;10.430;2022-07-09T08:07:27;5.07;;;2.80;;
37895;SDS011;23733;53.254;10.430;2022-07-09T08:09:53;3.33;;;2.40;;
37895;SDS011;23733;53.254;10.430;2022-07-09T08:12:19;5.40;;;2.63;;
37895;SDS011;23733;53.254;10.430;2022-07-09T08:14:45;6.80;;;2.60;;
37895;SDS011;23733;53.254;10.430;2022-07-09T08:17:12;9.93;;;2.33;;
37895;SDS011;23733;53.254;10.430;2022-07-09T08:19:38;6.53;;;2.27;;
37895;SDS011;23733;53.254;10.430;2022-07-09T08:22:04;4.87;;;2.50;;
37895;SDS011;23733;53.254;10.430;2022-07-09T08:24:30;4.90;;;2.30;;
37895;SDS011;23733;53.254;10.430;2022-07-09T08:26:56;4.77;;;2.13;;
37895;SDS011;23733;53.254;10.430;2022-07-09T08:29:24;6.10;;;2.40;;
37895;SDS011;23733;53.254;10.430;2022-07-09T08:31:51;4.17;;;2.20;;
37895;SDS011;23733;53.254;10.430;2022-07-09T08:34:17;6.20;;;1.93;;
37895;SDS011;23733;53.254;10.430;2022-07-09T08:36:43;6.83;;;2.00;;
37895;SDS011;23733;53.254;10.430;2022-07-09T08:39:10;5.33;;;2.13;;
37895;SDS011;23733;53.254;10.430;2022-07-09T08:41:36;2.67;;;1.70;;
37895;SDS011;23733;53.254;10.430;2022-07-09T08:44:03;4.30;;;2.00;;
37895;SDS011;23733;53.254;10.430;2022-07-09T08:46:31;6.23;;;2.00;;
37895;SDS011;23733;53.254;10.430;2022-07-09T08:48:57;3.10;;;1.97;;
37895;SDS011;23733;53.254;10.430;2022-07-09T08:51:24;4.20;;;2.20;;
37895;SDS011;23733;53.254;10.430;2022-07-09T08:53:51;6.77;;;2.40;;
37895;SDS011;23733;53.254;10.430;2022-07-09T08:56:20;3.50;;;1.93;;
37895;SDS011;23733;53.254;10.430;2022-07-09T08:58:46;4.27;;;2.00;;
37895;SDS011;23733;53.254;10.430;2022-07-09T09:01:13;3.30;;;1.73;;
37895;SDS011;23733;53.254;10.430;2022-07-09T09:03:43;4.80;;;2.10;;
37895;SDS011;23733;53.254;10.430;2022-07-09T09:06:10;2.87;;;2.00;;
37895;SDS011;23733;53.254;10.430;2022-07-09T09:08:38;4.27;;;1.97;;
37895;SDS011;23733;53.254;10.430;2022-07-09T09:11:06;3.80;;;1.70;;
37895;SDS011;23733;53.254;10.430;2022-07-09T09:13:46;5.90;;;2.10;;
37895;SDS011;23733;53.254;10.430;2022-07-09T09:16:14;3.40;;;2.10;;
37895;SDS011;23733;53.254;10.430;2022-07-09T09:18:42;3.37;;;1.70;;
37895;SDS011;23733;53.254;10.430;2022-07-09T09:21:10;5.20;;;2.03;;
37895;SDS011;23733;53.254;10.430;2022-07-09T09:23:46;5.83;;;2.10;;
37895;SDS011;23733;53.254;10.430;2022-07-09T09:26:20;2.17;;;1.67;;
37895;SDS011;23733;53.254;10.430;2022-07-09T09:28:51;3.13;;;1.73;;
37895;SDS011;23733;53.254;10.430;2022-07-09T09:33:49;3.97;;;1.90;;
37895;SDS011;23733;53.254;10.430;2022-07-09T09:36:29;5.53;;;2.00;;
37895;SDS011;23733;53.254;10.430;2022-07-09T09:39:07;8.90;;;2.23;;
37895;SDS011;23733;53.254;10.430;2022-07-09T09:41:55;6.43;;;2.20;;
37895;SDS011;23733;53.254;10.430;2022-07-09T09:44:26;9.57;;;1.93;;
37895;SDS011;23733;53.254;10.430;2022-07-09T09:46:55;4.73;;;1.70;;
37895;SDS011;23733;53.254;10.430;2022-07-09T09:49:22;1.83;;;1.30;;
37895;SDS011;23733;53.254;10.430;2022-07-09T09:51:55;2.53;;;1.63;;
37895;SDS011;23733;53.254;10.430;2022-07-09T09:54:33;5.47;;;1.60;;
37895;SDS011;23733;53.254;10.430;2022-07-09T09:57:00;2.97;;;1.67;;
37895;SDS011;23733;53.254;10.430;2022-07-09T09:59:30;2.97;;;1.50;;
37895;SDS011;23733;53.254;10.430;2022-07-09T10:01:57;4.57;;;1.40;;
37895;SDS011;23733;53.254;10.430;2022-07-09T10:04:23;2.00;;;1.30;;
37895;SDS011;23733;53.254;10.430;2022-07-09T10:06:50;2.83;;;1.40;;
37895;SDS011;23733;53.254;10.430;2022-07-09T10:09:16;4.70;;;1.50;;
37895;SDS011;23733;53.254;10.430;2022-07-09T10:14:14;4.33;;;1.87;;
37895;SDS011;23733;53.254;10.430;2022-07-09T10:16:50;2.93;;;1.50;;
37895;SDS011;23733;53.254;10.430;2022-07-09T10:19:27;2.87;;;1.30;;
37895;SDS011;23733;53.254;10.430;2022-07-09T10:21:58;5.83;;;1.40;;
37895;SDS011;23733;53.254;10.430;2022-07-09T10:24:25;3.20;;;1.20;;
37895;SDS011;23733;53.254;10.430;2022-07-09T10:27:01;2.50;;;1.30;;
37895;SDS011;23733;53.254;10.430;2022-07-09T10:29:53;1.93;;;1.10;;
37895;SDS011;23733;53.254;10.430;2022-07-09T10:32:26;3.20;;;1.60;;
37895;SDS011;23733;53.254;10.430;2022-07-09T10:34:53;5.70;;;1.20;;
37895;SDS011;23733;53.254;10.430;2022-07-09T10:37:41;3.07;;;1.03;;
37895;SDS011;23733;53.254;10.430;2022-07-09T10:40:15;2.17;;;1.00;;
37895;SDS011;23733;53.254;10.430;2022-07-09T10:42:43;3.90;;;1.20;;
37895;SDS011;23733;53.254;10.430;2022-07-09T10:45:23;2.30;;;1.13;;
37895;SDS011;23733;53.254;10.430;2022-07-09T10:47:54;2.70;;;1.10;;
37895;SDS011;23733;53.254;10.430;2022-07-09T10:50:22;2.60;;;1.10;;
37895;SDS011;23733;53.254;10.430;2022-07-09T10:52:50;2.60;;;1.20;;
37895;SDS011;23733;53.254;10.430;2022-07-09T10:55:17;7.30;;;1.37;;
37895;SDS011;23733;53.254;10.430;2022-07-09T10:57:44;2.23;;;1.10;;
37895;SDS011;23733;53.254;10.430;2022-07-09T11:00:14;2.80;;;1.10;;
37895;SDS011;23733;53.254;10.430;2022-07-09T11:03:00;5.53;;;1.10;;
37895;SDS011;23733;53.254;10.430;2022-07-09T11:05:29;2.50;;;1.33;;
37895;SDS011;23733;53.254;10.430;2022-07-09T11:07:57;3.50;;;1.30;;
37895;SDS011;23733;53.254;10.430;2022-07-09T11:10:25;1.90;;;1.03;;
37895;SDS011;23733;53.254;10.430;2022-07-09T11:12:54;3.10;;;1.10;;
37895;SDS011;23733;53.254;10.430;2022-07-09T11:15:21;5.37;;;1.17;;
37895;SDS011;23733;53.254;10.430;2022-07-09T11:17:54;2.60;;;1.20;;
37895;SDS011;23733;53.254;10.430;2022-07-09T11:20:24;1.87;;;1.03;;
37895;SDS011;23733;53.254;10.430;2022-07-09T11:22:51;2.13;;;1.10;;
37895;SDS011;23733;53.254;10.430;2022-07-09T11:25:18;2.27;;;1.00;;
37895;SDS011;23733;53.254;10.430;2022-07-09T11:27:44;4.47;;;1.03;;
37895;SDS011;23733;53.254;10.430;2022-07-09T11:30:13;3.67;;;1.17;;
37895;SDS011;23733;53.254;10.430;2022-07-09T11:32:41;2.90;;;1.00;;
37895;SDS011;23733;53.254;10.430;2022-07-09T11:35:08;2.50;;;1.00;;
37895;SDS011;23733;53.254;10.430;2022-07-09T11:37:34;5.30;;;1.20;;
37895;SDS011;23733;53.254;10.430;2022-07-09T11:40:00;3.73;;;1.00;;
37895;SDS011;23733;53.254;10.430;2022-07-09T11:42:27;2.37;;;0.93;;
37895;SDS011;23733;53.254;10.430;2022-07-09T11:44:56;1.63;;;1.00;;
37895;SDS011;23733;53.254;10.430;2022-07-09T11:47:37;4.27;;;1.20;;
37895;SDS011;23733;53.254;10.430;2022-07-09T11:52:44;2.97;;;0.90;;
37895;SDS011;23733;53.254;10.430;2022-07-09T11:55:14;1.53;;;0.90;;
37895;SDS011;23733;53.254;10.430;2022-07-09T11:57:50;4.73;;;1.17;;
37895;SDS011;23733;53.254;10.430;2022-07-09T12:00:24;1.60;;;0.90;;
37895;SDS011;23733;53.254;10.430;2022-07-09T12:02:53;6.17;;;0.80;;
37895;SDS011;23733;53.254;10.430;2022-07-09T12:05:27;6.90;;;1.50;;
37895;SDS011;23733;53.254;10.430;2022-07-09T12:07:58;7.37;;;1.60;;
37895;SDS011;23733;53.254;10.430;2022-07-09T12:10:29;2.67;;;1.10;;
37895;SDS011;23733;53.254;10.430;2022-07-09T12:12:57;3.30;;;1.00;;
37895;SDS011;23733;53.254;10.430;2022-07-09T12:15:24;2.27;;;1.10;;
37895;SDS011;23733;53.254;10.430;2022-07-09T12:17:52;3.57;;;0.90;;
37895;SDS011;23733;53.254;10.430;2022-07-09T12:20:20;1.17;;;0.80;;
37895;SDS011;23733;53.254;10.430;2022-07-09T12:22:50;2.73;;;1.00;;
37895;SDS011;23733;53.254;10.430;2022-07-09T12:25:17;1.90;;;0.80;;
37895;SDS011;23733;53.254;10.430;2022-07-09T12:27:44;2.53;;;1.03;;
37895;SDS011;23733;53.254;10.430;2022-07-09T12:30:11;2.03;;;0.90;;
37895;SDS011;23733;53.254;10.430;2022-07-09T12:32:38;2.60;;;1.00;;
37895;SDS011;23733;53.254;10.430;2022-07-09T12:35:04;3.37;;;1.10;;
37895;SDS011;23733;53.254;10.430;2022-07-09T12:37:31;1.73;;;0.80;;
37895;SDS011;23733;53.254;10.430;2022-07-09T12:39:57;5.87;;;0.87;;
37895;SDS011;23733;53.254;10.430;2022-07-09T12:42:23;2.17;;;1.17;;
37895;SDS011;23733;53.254;10.430;2022-07-09T12:44:49;1.80;;;0.93;;
37895;SDS011;23733;53.254;10.430;2022-07-09T12:47:15;2.03;;;1.10;;
37895;SDS011;23733;53.254;10.430;2022-07-09T12:49:42;1.70;;;0.90;;
37895;SDS011;23733;53.254;10.430;2022-07-09T12:52:08;0.97;;;0.87;;
37895;SDS011;23733;53.254;10.430;2022-07-09T12:54:34;1.27;;;0.80;;
37895;SDS011;23733;53.254;10.430;2022-07-09T12:57:01;2.97;;;1.30;;
37895;SDS011;23733;53.254;10.430;2022-07-09T12:59:27;4.67;;;1.10;;
37895;SDS011;23733;53.254;10.430;2022-07-09T13:01:53;1.70;;;0.97;;
37895;SDS011;23733;53.254;10.430;2022-07-09T13:04:19;3.30;;;1.30;;
37895;SDS011;23733;53.254;10.430;2022-07-09T13:06:45;2.07;;;1.10;;
37895;SDS011;23733;53.254;10.430;2022-07-09T13:09:11;2.17;;;0.93;;
37895;SDS011;23733;53.254;10.430;2022-07-09T13:11:37;2.47;;;1.10;;
37895;SDS011;23733;53.254;10.430;2022-07-09T13:14:04;2.40;;;1.10;;
37895;SDS011;23733;53.254;10.430;2022-07-09T13:16:31;2.90;;;1.10;;
37895;SDS011;23733;53.254;10.430;2022-07-09T13:18:57;2.57;;;0.93;;
37895;SDS011;23733;53.254;10.430;2022-07-09T13:21:23;3.10;;;1.10;;
37895;SDS011;23733;53.254;10.430;2022-07-09T13:23:49;1.93;;;1.10;;
37895;SDS011;23733;53.254;10.430;2022-07-09T13:26:16;3.03;;;1.20;;
37895;SDS011;23733;53.254;10.430;2022-07-09T13:28:42;4.93;;;1.33;;
37895;SDS011;23733;53.254;10.430;2022-07-09T13:31:08;1.73;;;1.10;;
37895;SDS011;23733;53.254;10.430;2022-07-09T13:33:35;4.77;;;1.57;;
37895;SDS011;23733;53.254;10.430;2022-07-09T13:36:01;2.40;;;1.10;;
37895;SDS011;23733;53.254;10.430;2022-07-09T13:38:30;5.63;;;1.40;;
37895;SDS011;23733;53.254;10.430;2022-07-09T13:40:56;3.63;;;1.07;;
37895;SDS011;23733;53.254;10.430;2022-07-09T13:43:23;2.50;;;1.10;;
37895;SDS011;23733;53.254;10.430;2022-07-09T13:45:51;5.03;;;1.20;;
37895;SDS011;23733;53.254;10.430;2022-07-09T13:48:18;2.07;;;1.03;;
37895;SDS011;23733;53.254;10.430;2022-07-09T13:50:44;3.93;;;1.30;;
37895;SDS011;23733;53.254;10.430;2022-07-09T13:53:10;3.77;;;1.30;;
37895;SDS011;23733;53.254;10.430;2022-07-09T13:55:36;2.60;;;1.00;;
37895;SDS011;23733;53.254;10.430;2022-07-09T13:58:02;6.43;;;1.17;;
37895;SDS011;23733;53.254;10.430;2022-07-09T14:00:28;4.57;;;1.20;;
37895;SDS011;23733;53.254;10.430;2022-07-09T14:02:54;2.03;;;1.00;;
37895;SDS011;23733;53.254;10.430;2022-07-09T14:05:20;4.93;;;1.33;;
37895;SDS011;23733;53.254;10.430;2022-07-09T14:07:46;5.17;;;1.27;;
37895;SDS011;23733;53.254;10.430;2022-07-09T14:10:12;2.67;;;1.17;;
37895;SDS011;23733;53.254;10.430;2022-07-09T14:12:39;3.80;;;1.20;;
37895;SDS011;23733;53.254;10.430;2022-07-09T14:15:05;4.90;;;1.40;;
37895;SDS011;23733;53.254;10.430;2022-07-09T14:17:31;2.77;;;1.00;;
37895;SDS011;23733;53.254;10.430;2022-07-09T14:19:57;4.80;;;1.30;;
37895;SDS011;23733;53.254;10.430;2022-07-09T14:22:24;3.57;;;1.20;;
37895;SDS011;23733;53.254;10.430;2022-07-09T14:24:51;5.40;;;1.27;;
37895;SDS011;23733;53.254;10.430;2022-07-09T14:27:19;4.53;;;1.30;;
37895;SDS011;23733;53.254;10.430;2022-07-09T14:29:45;4.47;;;1.20;;
37895;SDS011;23733;53.254;10.430;2022-07-09T14:32:11;15.77;;;1.70;;
37895;SDS011;23733;53.254;10.430;2022-07-09T14:34:37;5.80;;;1.60;;
37895;SDS011;23733;53.254;10.430;2022-07-09T14:37:06;4.47;;;1.27;;
37895;SDS011;23733;53.254;10.430;2022-07-09T14:39:32;3.90;;;1.33;;